sensor_id;sensor_type;location;lat;lon;timestamp;P1;durP1;ratioP1;P2;durP2;ratioP2
73575;SDS011;61859;49.204;8.140;2022-12-07T00:03:37;4.43;;;3.37;;
73575;SDS011;61859;49.204;8.140;2022-12-07T00:06:03;3.87;;;3.13;;
73575;SDS011;61859;49.204;8.140;2022-12-07T00:08:31;4.43;;;3.20;;
73575;SDS011;61859;49.204;8.140;2022-12-07T00:11:00;5.53;;;3.47;;
73575;SDS011;61859;49.204;8.140;2022-12-07T00:13:34;7.07;;;3.33;;
73575;SDS011;61859;49.204;8.140;2022-12-07T00:16:08;6.03;;;3.60;;
73575;SDS011;61859;49.204;8.140;2022-12-07T00:18:35;5.50;;;3.63;;
73575;SDS011;61859;49.204;8.140;2022-12-07T00:21:14;5.20;;;3.67;;
73575;SDS011;61859;49.204;8.140;2022-12-07T00:23:43;5.33;;;3.20;;
73575;SDS011;61859;49.204;8.140;2022-12-07T00:26:11;5.53;;;3.87;;
73575;SDS011;61859;49.204;8.140;2022-12-07T00:28:38;5.87;;;3.67;;
73575;SDS011;61859;49.204;8.140;2022-12-07T00:31:11;4.23;;;3.23;;
73575;SDS011;61859;49.204;8.140;2022-12-07T00:33:37;4.43;;;3.27;;
73575;SDS011;61859;49.204;8.140;2022-12-07T00:36:05;6.20;;;3.33;;
73575;SDS011;61859;49.204;8.140;2022-12-07T00:38:33;5.93;;;4.03;;
73575;SDS011;61859;49.204;8.140;2022-12-07T00:41:01;4.90;;;3.47;;
73575;SDS011;61859;49.204;8.140;2022-12-07T00:43:28;7.27;;;3.47;;
73575;SDS011;61859;49.204;8.140;2022-12-07T00:45:54;5.60;;;4.03;;
73575;SDS011;61859;49.204;8.140;2022-12-07T00:48:21;7.37;;;3.83;;
73575;SDS011;61859;49.204;8.140;2022-12-07T00:50:47;4.53;;;3.03;;
73575;SDS011;61859;49.204;8.140;2022-12-07T00:53:13;8.87;;;5.43;;
73575;SDS011;61859;49.204;8.140;2022-12-07T00:55:38;17.67;;;9.57;;
73575;SDS011;61859;49.204;8.140;2022-12-07T00:58:04;8.20;;;5.90;;
73575;SDS011;61859;49.204;8.140;2022-12-07T01:00:30;9.27;;;5.80;;
73575;SDS011;61859;49.204;8.140;2022-12-07T01:02:56;17.93;;;8.60;;
73575;SDS011;61859;49.204;8.140;2022-12-07T01:05:21;10.33;;;5.83;;
73575;SDS011;61859;49.204;8.140;2022-12-07T01:07:47;14.20;;;8.20;;
73575;SDS011;61859;49.204;8.140;2022-12-07T01:10:13;10.87;;;6.67;;
73575;SDS011;61859;49.204;8.140;2022-12-07T01:12:39;9.60;;;5.77;;
73575;SDS011;61859;49.204;8.140;2022-12-07T01:15:06;6.50;;;4.50;;
73575;SDS011;61859;49.204;8.140;2022-12-07T01:17:33;7.00;;;4.70;;
73575;SDS011;61859;49.204;8.140;2022-12-07T01:19:59;6.37;;;4.67;;
73575;SDS011;61859;49.204;8.140;2022-12-07T01:22:25;7.17;;;4.43;;
73575;SDS011;61859;49.204;8.140;2022-12-07T01:24:51;5.77;;;3.53;;
73575;SDS011;61859;49.204;8.140;2022-12-07T01:27:16;8.57;;;5.73;;
73575;SDS011;61859;49.204;8.140;2022-12-07T01:29:42;9.87;;;5.73;;
73575;SDS011;61859;49.204;8.140;2022-12-07T01:32:07;5.33;;;3.90;;
73575;SDS011;61859;49.204;8.140;2022-12-07T01:34:33;7.63;;;4.27;;
73575;SDS011;61859;49.204;8.140;2022-12-07T01:36:58;5.97;;;4.20;;
73575;SDS011;61859;49.204;8.140;2022-12-07T01:39:24;12.43;;;5.53;;
73575;SDS011;61859;49.204;8.140;2022-12-07T01:41:49;10.50;;;6.33;;
73575;SDS011;61859;49.204;8.140;2022-12-07T01:44:28;8.03;;;4.90;;
73575;SDS011;61859;49.204;8.140;2022-12-07T01:46:59;6.30;;;3.80;;
73575;SDS011;61859;49.204;8.140;2022-12-07T01:49:41;5.87;;;3.57;;
73575;SDS011;61859;49.204;8.140;2022-12-07T01:52:13;11.63;;;5.73;;
73575;SDS011;61859;49.204;8.140;2022-12-07T01:54:40;8.63;;;5.20;;
73575;SDS011;61859;49.204;8.140;2022-12-07T01:57:07;5.90;;;3.97;;
73575;SDS011;61859;49.204;8.140;2022-12-07T01:59:33;5.83;;;3.73;;
73575;SDS011;61859;49.204;8.140;2022-12-07T02:02:00;7.40;;;4.70;;
73575;SDS011;61859;49.204;8.140;2022-12-07T02:04:28;7.53;;;5.07;;
73575;SDS011;61859;49.204;8.140;2022-12-07T02:06:55;4.87;;;3.70;;
73575;SDS011;61859;49.204;8.140;2022-12-07T02:09:22;4.67;;;3.60;;
73575;SDS011;61859;49.204;8.140;2022-12-07T02:11:48;5.90;;;3.60;;
73575;SDS011;61859;49.204;8.140;2022-12-07T02:14:14;5.03;;;3.57;;
73575;SDS011;61859;49.204;8.140;2022-12-07T02:19:52;6.03;;;3.70;;
73575;SDS011;61859;49.204;8.140;2022-12-07T02:25:29;7.07;;;3.57;;
73575;SDS011;61859;49.204;8.140;2022-12-07T02:30:53;5.67;;;3.97;;
73575;SDS011;61859;49.204;8.140;2022-12-07T02:33:28;7.20;;;3.80;;
73575;SDS011;61859;49.204;8.140;2022-12-07T02:36:10;6.23;;;3.90;;
73575;SDS011;61859;49.204;8.140;2022-12-07T02:38:44;6.30;;;3.83;;
73575;SDS011;61859;49.204;8.140;2022-12-07T02:41:26;9.43;;;4.43;;
73575;SDS011;61859;49.204;8.140;2022-12-07T02:43:58;6.20;;;4.03;;
73575;SDS011;61859;49.204;8.140;2022-12-07T02:46:28;5.40;;;4.07;;
73575;SDS011;61859;49.204;8.140;2022-12-07T02:48:57;5.27;;;3.80;;
73575;SDS011;61859;49.204;8.140;2022-12-07T02:51:24;6.07;;;4.10;;
73575;SDS011;61859;49.204;8.140;2022-12-07T02:53:50;6.90;;;4.50;;
73575;SDS011;61859;49.204;8.140;2022-12-07T02:59:05;6.10;;;3.97;;
73575;SDS011;61859;49.204;8.140;2022-12-07T03:12:47;4.67;;;3.57;;
73575;SDS011;61859;49.204;8.140;2022-12-07T03:16:05;5.03;;;3.63;;
73575;SDS011;61859;49.204;8.140;2022-12-07T03:18:15;6.77;;;4.67;;
73575;SDS011;61859;49.204;8.140;2022-12-07T03:20:44;6.83;;;4.07;;
73575;SDS011;61859;49.204;8.140;2022-12-07T03:23:13;5.97;;;3.70;;
73575;SDS011;61859;49.204;8.140;2022-12-07T03:25:41;5.90;;;4.10;;
73575;SDS011;61859;49.204;8.140;2022-12-07T03:28:12;5.50;;;4.13;;
73575;SDS011;61859;49.204;8.140;2022-12-07T03:30:56;4.40;;;3.67;;
73575;SDS011;61859;49.204;8.140;2022-12-07T03:33:34;4.60;;;3.40;;
73575;SDS011;61859;49.204;8.140;2022-12-07T03:36:11;7.03;;;3.43;;
73575;SDS011;61859;49.204;8.140;2022-12-07T03:38:49;6.83;;;4.07;;
73575;SDS011;61859;49.204;8.140;2022-12-07T03:41:24;5.67;;;3.20;;
73575;SDS011;61859;49.204;8.140;2022-12-07T03:43:54;5.23;;;3.97;;
73575;SDS011;61859;49.204;8.140;2022-12-07T03:46:27;5.03;;;3.57;;
73575;SDS011;61859;49.204;8.140;2022-12-07T03:49:24;6.17;;;3.80;;
73575;SDS011;61859;49.204;8.140;2022-12-07T03:57:09;6.23;;;4.00;;
73575;SDS011;61859;49.204;8.140;2022-12-07T03:59:36;4.53;;;3.40;;
73575;SDS011;61859;49.204;8.140;2022-12-07T04:02:03;5.27;;;4.10;;
73575;SDS011;61859;49.204;8.140;2022-12-07T04:04:31;4.73;;;3.50;;
73575;SDS011;61859;49.204;8.140;2022-12-07T04:06:57;6.63;;;4.00;;
73575;SDS011;61859;49.204;8.140;2022-12-07T04:09:22;5.97;;;3.90;;
73575;SDS011;61859;49.204;8.140;2022-12-07T04:11:48;5.73;;;3.50;;
73575;SDS011;61859;49.204;8.140;2022-12-07T04:14:13;5.10;;;3.60;;
73575;SDS011;61859;49.204;8.140;2022-12-07T04:19:15;5.17;;;3.50;;
73575;SDS011;61859;49.204;8.140;2022-12-07T04:21:42;6.17;;;3.67;;
73575;SDS011;61859;49.204;8.140;2022-12-07T04:24:08;6.43;;;3.43;;
73575;SDS011;61859;49.204;8.140;2022-12-07T04:26:34;5.47;;;3.50;;
73575;SDS011;61859;49.204;8.140;2022-12-07T04:28:59;4.93;;;3.43;;
73575;SDS011;61859;49.204;8.140;2022-12-07T04:31:25;4.87;;;3.37;;
73575;SDS011;61859;49.204;8.140;2022-12-07T04:33:50;5.03;;;3.30;;
73575;SDS011;61859;49.204;8.140;2022-12-07T04:36:16;7.17;;;3.63;;
73575;SDS011;61859;49.204;8.140;2022-12-07T04:38:42;5.53;;;3.67;;
73575;SDS011;61859;49.204;8.140;2022-12-07T04:41:08;5.70;;;3.43;;
73575;SDS011;61859;49.204;8.140;2022-12-07T04:43:34;4.07;;;3.00;;
73575;SDS011;61859;49.204;8.140;2022-12-07T04:46:00;3.97;;;3.10;;
73575;SDS011;61859;49.204;8.140;2022-12-07T04:48:26;5.47;;;3.87;;
73575;SDS011;61859;49.204;8.140;2022-12-07T04:50:52;4.80;;;3.20;;
73575;SDS011;61859;49.204;8.140;2022-12-07T04:53:18;6.43;;;3.57;;
73575;SDS011;61859;49.204;8.140;2022-12-07T04:55:44;5.97;;;3.60;;
73575;SDS011;61859;49.204;8.140;2022-12-07T04:58:10;3.53;;;2.83;;
73575;SDS011;61859;49.204;8.140;2022-12-07T05:00:36;7.77;;;3.97;;
73575;SDS011;61859;49.204;8.140;2022-12-07T05:03:02;4.80;;;3.40;;
73575;SDS011;61859;49.204;8.140;2022-12-07T05:05:27;5.43;;;3.67;;
73575;SDS011;61859;49.204;8.140;2022-12-07T05:07:53;4.57;;;3.40;;
73575;SDS011;61859;49.204;8.140;2022-12-07T05:10:18;7.17;;;3.73;;
73575;SDS011;61859;49.204;8.140;2022-12-07T05:12:44;6.30;;;3.90;;
73575;SDS011;61859;49.204;8.140;2022-12-07T05:15:11;5.80;;;3.67;;
73575;SDS011;61859;49.204;8.140;2022-12-07T05:17:37;6.00;;;3.47;;
73575;SDS011;61859;49.204;8.140;2022-12-07T05:20:03;6.70;;;3.27;;
73575;SDS011;61859;49.204;8.140;2022-12-07T05:22:29;5.40;;;3.63;;
73575;SDS011;61859;49.204;8.140;2022-12-07T05:24:54;3.93;;;3.10;;
73575;SDS011;61859;49.204;8.140;2022-12-07T05:27:20;6.47;;;4.03;;
73575;SDS011;61859;49.204;8.140;2022-12-07T05:29:46;6.37;;;4.00;;
73575;SDS011;61859;49.204;8.140;2022-12-07T05:32:12;7.40;;;4.23;;
73575;SDS011;61859;49.204;8.140;2022-12-07T05:34:37;4.77;;;3.53;;
73575;SDS011;61859;49.204;8.140;2022-12-07T05:37:03;5.77;;;3.73;;
73575;SDS011;61859;49.204;8.140;2022-12-07T05:39:29;7.67;;;4.37;;
73575;SDS011;61859;49.204;8.140;2022-12-07T05:41:54;5.73;;;4.10;;
73575;SDS011;61859;49.204;8.140;2022-12-07T05:44:39;6.10;;;3.97;;
73575;SDS011;61859;49.204;8.140;2022-12-07T05:47:05;8.83;;;4.00;;
73575;SDS011;61859;49.204;8.140;2022-12-07T05:49:31;5.50;;;3.97;;
73575;SDS011;61859;49.204;8.140;2022-12-07T05:51:57;5.80;;;4.07;;
73575;SDS011;61859;49.204;8.140;2022-12-07T05:54:23;4.73;;;3.80;;
73575;SDS011;61859;49.204;8.140;2022-12-07T05:56:48;6.90;;;4.10;;
73575;SDS011;61859;49.204;8.140;2022-12-07T05:59:14;6.77;;;4.30;;
73575;SDS011;61859;49.204;8.140;2022-12-07T06:01:56;7.27;;;4.27;;
73575;SDS011;61859;49.204;8.140;2022-12-07T06:04:23;5.57;;;4.30;;
73575;SDS011;61859;49.204;8.140;2022-12-07T06:06:50;7.50;;;4.53;;
73575;SDS011;61859;49.204;8.140;2022-12-07T06:09:16;5.87;;;4.07;;
73575;SDS011;61859;49.204;8.140;2022-12-07T06:11:43;7.20;;;4.07;;
73575;SDS011;61859;49.204;8.140;2022-12-07T06:14:27;4.20;;;3.13;;
73575;SDS011;61859;49.204;8.140;2022-12-07T06:16:53;6.13;;;4.07;;
73575;SDS011;61859;49.204;8.140;2022-12-07T06:19:18;9.23;;;5.03;;
73575;SDS011;61859;49.204;8.140;2022-12-07T06:21:44;7.43;;;4.83;;
73575;SDS011;61859;49.204;8.140;2022-12-07T06:24:10;8.10;;;4.20;;
73575;SDS011;61859;49.204;8.140;2022-12-07T06:26:37;9.07;;;5.70;;
73575;SDS011;61859;49.204;8.140;2022-12-07T06:29:03;8.00;;;4.70;;
73575;SDS011;61859;49.204;8.140;2022-12-07T06:31:29;7.80;;;4.73;;
73575;SDS011;61859;49.204;8.140;2022-12-07T06:34:02;10.23;;;4.43;;
73575;SDS011;61859;49.204;8.140;2022-12-07T06:36:29;6.30;;;4.00;;
73575;SDS011;61859;49.204;8.140;2022-12-07T06:38:55;5.80;;;4.10;;
73575;SDS011;61859;49.204;8.140;2022-12-07T06:41:21;7.30;;;4.37;;
73575;SDS011;61859;49.204;8.140;2022-12-07T06:43:47;6.80;;;4.77;;
73575;SDS011;61859;49.204;8.140;2022-12-07T06:46:13;7.27;;;4.67;;
73575;SDS011;61859;49.204;8.140;2022-12-07T06:48:39;7.20;;;4.80;;
73575;SDS011;61859;49.204;8.140;2022-12-07T06:51:05;10.97;;;5.27;;
73575;SDS011;61859;49.204;8.140;2022-12-07T06:53:31;7.53;;;4.93;;
73575;SDS011;61859;49.204;8.140;2022-12-07T06:55:56;8.10;;;5.50;;
73575;SDS011;61859;49.204;8.140;2022-12-07T06:58:22;9.07;;;6.03;;
73575;SDS011;61859;49.204;8.140;2022-12-07T07:00:48;8.60;;;4.93;;
73575;SDS011;61859;49.204;8.140;2022-12-07T07:03:14;11.70;;;5.67;;
73575;SDS011;61859;49.204;8.140;2022-12-07T07:05:41;10.27;;;5.23;;
73575;SDS011;61859;49.204;8.140;2022-12-07T07:08:07;8.70;;;6.10;;
73575;SDS011;61859;49.204;8.140;2022-12-07T07:10:32;6.67;;;4.60;;
73575;SDS011;61859;49.204;8.140;2022-12-07T07:12:58;10.83;;;5.33;;
73575;SDS011;61859;49.204;8.140;2022-12-07T07:15:24;6.40;;;4.43;;
73575;SDS011;61859;49.204;8.140;2022-12-07T07:17:49;15.80;;;6.03;;
73575;SDS011;61859;49.204;8.140;2022-12-07T07:20:15;8.57;;;5.57;;
73575;SDS011;61859;49.204;8.140;2022-12-07T07:22:40;9.27;;;5.50;;
73575;SDS011;61859;49.204;8.140;2022-12-07T07:25:06;6.53;;;4.17;;
73575;SDS011;61859;49.204;8.140;2022-12-07T07:27:32;9.57;;;6.67;;
73575;SDS011;61859;49.204;8.140;2022-12-07T07:29:58;14.83;;;7.93;;
73575;SDS011;61859;49.204;8.140;2022-12-07T07:32:23;11.57;;;6.20;;
73575;SDS011;61859;49.204;8.140;2022-12-07T07:34:49;13.17;;;8.50;;
73575;SDS011;61859;49.204;8.140;2022-12-07T07:37:14;12.87;;;7.13;;
73575;SDS011;61859;49.204;8.140;2022-12-07T07:39:40;12.90;;;6.63;;
73575;SDS011;61859;49.204;8.140;2022-12-07T07:42:05;6.30;;;4.30;;
73575;SDS011;61859;49.204;8.140;2022-12-07T07:44:32;8.30;;;5.57;;
73575;SDS011;61859;49.204;8.140;2022-12-07T07:46:58;9.80;;;5.60;;
73575;SDS011;61859;49.204;8.140;2022-12-07T07:49:24;11.23;;;5.37;;
73575;SDS011;61859;49.204;8.140;2022-12-07T07:51:50;15.77;;;5.57;;
73575;SDS011;61859;49.204;8.140;2022-12-07T07:54:15;8.10;;;5.47;;
73575;SDS011;61859;49.204;8.140;2022-12-07T07:56:41;8.73;;;5.10;;
73575;SDS011;61859;49.204;8.140;2022-12-07T07:59:07;10.67;;;5.80;;
73575;SDS011;61859;49.204;8.140;2022-12-07T08:01:33;9.40;;;5.17;;
73575;SDS011;61859;49.204;8.140;2022-12-07T08:03:58;10.57;;;6.30;;
73575;SDS011;61859;49.204;8.140;2022-12-07T08:06:24;10.97;;;5.47;;
73575;SDS011;61859;49.204;8.140;2022-12-07T08:08:49;12.53;;;5.73;;
73575;SDS011;61859;49.204;8.140;2022-12-07T08:11:15;7.37;;;5.07;;
73575;SDS011;61859;49.204;8.140;2022-12-07T08:13:41;9.47;;;5.23;;
73575;SDS011;61859;49.204;8.140;2022-12-07T08:16:07;9.37;;;6.10;;
73575;SDS011;61859;49.204;8.140;2022-12-07T08:18:37;10.50;;;7.03;;
73575;SDS011;61859;49.204;8.140;2022-12-07T08:21:05;8.73;;;5.30;;
73575;SDS011;61859;49.204;8.140;2022-12-07T08:23:32;10.70;;;7.00;;
73575;SDS011;61859;49.204;8.140;2022-12-07T08:26:02;6.57;;;4.63;;
73575;SDS011;61859;49.204;8.140;2022-12-07T08:28:29;11.43;;;7.00;;
73575;SDS011;61859;49.204;8.140;2022-12-07T08:31:02;11.27;;;6.83;;
73575;SDS011;61859;49.204;8.140;2022-12-07T08:33:29;19.07;;;9.30;;
73575;SDS011;61859;49.204;8.140;2022-12-07T08:36:00;16.80;;;8.93;;
73575;SDS011;61859;49.204;8.140;2022-12-07T08:38:27;11.57;;;6.27;;
73575;SDS011;61859;49.204;8.140;2022-12-07T08:40:53;9.47;;;5.70;;
73575;SDS011;61859;49.204;8.140;2022-12-07T08:43:23;12.33;;;6.10;;
73575;SDS011;61859;49.204;8.140;2022-12-07T08:45:49;8.83;;;5.83;;
73575;SDS011;61859;49.204;8.140;2022-12-07T08:48:23;11.47;;;6.17;;
73575;SDS011;61859;49.204;8.140;2022-12-07T08:50:50;8.30;;;5.43;;
73575;SDS011;61859;49.204;8.140;2022-12-07T08:53:16;10.83;;;5.10;;
73575;SDS011;61859;49.204;8.140;2022-12-07T08:55:43;11.63;;;7.23;;
73575;SDS011;61859;49.204;8.140;2022-12-07T08:58:11;8.93;;;5.33;;
73575;SDS011;61859;49.204;8.140;2022-12-07T09:00:36;8.83;;;6.37;;
73575;SDS011;61859;49.204;8.140;2022-12-07T09:03:02;8.93;;;5.47;;
73575;SDS011;61859;49.204;8.140;2022-12-07T09:05:27;6.03;;;4.33;;
73575;SDS011;61859;49.204;8.140;2022-12-07T09:07:54;12.93;;;6.33;;
73575;SDS011;61859;49.204;8.140;2022-12-07T09:10:24;11.53;;;7.03;;
73575;SDS011;61859;49.204;8.140;2022-12-07T09:12:50;10.03;;;7.37;;
73575;SDS011;61859;49.204;8.140;2022-12-07T09:15:16;8.67;;;6.03;;
73575;SDS011;61859;49.204;8.140;2022-12-07T09:17:42;11.70;;;5.70;;
73575;SDS011;61859;49.204;8.140;2022-12-07T09:20:08;6.30;;;4.40;;
73575;SDS011;61859;49.204;8.140;2022-12-07T09:22:34;6.63;;;5.10;;
73575;SDS011;61859;49.204;8.140;2022-12-07T09:24:59;8.47;;;5.43;;
73575;SDS011;61859;49.204;8.140;2022-12-07T09:27:26;10.30;;;5.53;;
73575;SDS011;61859;49.204;8.140;2022-12-07T09:29:51;8.50;;;5.57;;
73575;SDS011;61859;49.204;8.140;2022-12-07T09:32:17;10.07;;;5.70;;
73575;SDS011;61859;49.204;8.140;2022-12-07T09:34:43;8.23;;;4.30;;
73575;SDS011;61859;49.204;8.140;2022-12-07T09:37:09;8.27;;;4.87;;
73575;SDS011;61859;49.204;8.140;2022-12-07T09:39:37;6.83;;;4.77;;
73575;SDS011;61859;49.204;8.140;2022-12-07T09:42:03;6.47;;;4.93;;
73575;SDS011;61859;49.204;8.140;2022-12-07T09:44:31;10.60;;;6.03;;
73575;SDS011;61859;49.204;8.140;2022-12-07T09:46:57;8.03;;;4.93;;
73575;SDS011;61859;49.204;8.140;2022-12-07T09:49:24;9.43;;;5.43;;
73575;SDS011;61859;49.204;8.140;2022-12-07T09:52:00;10.77;;;6.27;;
73575;SDS011;61859;49.204;8.140;2022-12-07T09:54:26;8.53;;;5.70;;
73575;SDS011;61859;49.204;8.140;2022-12-07T09:56:51;10.10;;;5.60;;
73575;SDS011;61859;49.204;8.140;2022-12-07T09:59:18;9.47;;;5.60;;
73575;SDS011;61859;49.204;8.140;2022-12-07T10:01:44;8.87;;;5.90;;
73575;SDS011;61859;49.204;8.140;2022-12-07T10:04:15;8.63;;;5.60;;
73575;SDS011;61859;49.204;8.140;2022-12-07T10:06:44;8.07;;;5.40;;
73575;SDS011;61859;49.204;8.140;2022-12-07T10:09:14;9.73;;;5.63;;
73575;SDS011;61859;49.204;8.140;2022-12-07T10:12:01;9.40;;;5.97;;
73575;SDS011;61859;49.204;8.140;2022-12-07T10:14:30;8.93;;;5.53;;
73575;SDS011;61859;49.204;8.140;2022-12-07T10:16:57;8.60;;;5.83;;
73575;SDS011;61859;49.204;8.140;2022-12-07T10:19:27;10.07;;;5.87;;
73575;SDS011;61859;49.204;8.140;2022-12-07T10:22:05;9.73;;;6.00;;
73575;SDS011;61859;49.204;8.140;2022-12-07T10:24:35;9.30;;;5.33;;
73575;SDS011;61859;49.204;8.140;2022-12-07T10:27:04;10.27;;;6.00;;
73575;SDS011;61859;49.204;8.140;2022-12-07T10:29:31;7.77;;;4.63;;
73575;SDS011;61859;49.204;8.140;2022-12-07T10:34:32;7.30;;;5.53;;
73575;SDS011;61859;49.204;8.140;2022-12-07T10:39:50;9.57;;;5.43;;
73575;SDS011;61859;49.204;8.140;2022-12-07T10:44:47;7.80;;;4.70;;
73575;SDS011;61859;49.204;8.140;2022-12-07T10:53:12;8.87;;;4.97;;
73575;SDS011;61859;49.204;8.140;2022-12-07T10:58:54;6.53;;;3.93;;
73575;SDS011;61859;49.204;8.140;2022-12-07T11:01:44;11.17;;;5.57;;
73575;SDS011;61859;49.204;8.140;2022-12-07T11:07:05;6.13;;;3.77;;
73575;SDS011;61859;49.204;8.140;2022-12-07T11:09:47;8.13;;;5.03;;
73575;SDS011;61859;49.204;8.140;2022-12-07T11:12:54;10.07;;;6.00;;
73575;SDS011;61859;49.204;8.140;2022-12-07T11:21:33;7.93;;;4.93;;
73575;SDS011;61859;49.204;8.140;2022-12-07T11:24:14;6.10;;;4.27;;
73575;SDS011;61859;49.204;8.140;2022-12-07T11:26:42;6.30;;;4.60;;
73575;SDS011;61859;49.204;8.140;2022-12-07T11:29:29;6.50;;;4.73;;
73575;SDS011;61859;49.204;8.140;2022-12-07T11:35:07;7.47;;;4.87;;
73575;SDS011;61859;49.204;8.140;2022-12-07T11:37:34;5.53;;;4.60;;
73575;SDS011;61859;49.204;8.140;2022-12-07T11:40:09;8.97;;;4.87;;
73575;SDS011;61859;49.204;8.140;2022-12-07T11:43:04;11.57;;;5.20;;
73575;SDS011;61859;49.204;8.140;2022-12-07T11:45:31;8.33;;;5.47;;
73575;SDS011;61859;49.204;8.140;2022-12-07T11:48:16;6.77;;;5.10;;
73575;SDS011;61859;49.204;8.140;2022-12-07T11:50:48;8.80;;;5.97;;
73575;SDS011;61859;49.204;8.140;2022-12-07T11:53:25;10.53;;;6.83;;
73575;SDS011;61859;49.204;8.140;2022-12-07T11:56:00;5.87;;;4.40;;
73575;SDS011;61859;49.204;8.140;2022-12-07T12:06:24;8.70;;;4.57;;
73575;SDS011;61859;49.204;8.140;2022-12-07T12:08:58;4.80;;;3.47;;
73575;SDS011;61859;49.204;8.140;2022-12-07T12:11:44;13.17;;;4.53;;
73575;SDS011;61859;49.204;8.140;2022-12-07T12:23:06;6.80;;;4.20;;
73575;SDS011;61859;49.204;8.140;2022-12-07T12:25:46;5.83;;;3.80;;
73575;SDS011;61859;49.204;8.140;2022-12-07T12:33:30;6.33;;;3.93;;
73575;SDS011;61859;49.204;8.140;2022-12-07T12:39:26;4.90;;;4.10;;
73575;SDS011;61859;49.204;8.140;2022-12-07T12:44:00;11.33;;;4.60;;
73575;SDS011;61859;49.204;8.140;2022-12-07T12:48:55;5.57;;;3.70;;
73575;SDS011;61859;49.204;8.140;2022-12-07T12:51:40;6.37;;;4.23;;
73575;SDS011;61859;49.204;8.140;2022-12-07T12:54:11;6.73;;;4.00;;
73575;SDS011;61859;49.204;8.140;2022-12-07T12:56:51;5.90;;;3.80;;
73575;SDS011;61859;49.204;8.140;2022-12-07T12:59:30;6.07;;;4.20;;
73575;SDS011;61859;49.204;8.140;2022-12-07T13:02:15;6.97;;;4.17;;
73575;SDS011;61859;49.204;8.140;2022-12-07T13:04:50;6.90;;;3.83;;
73575;SDS011;61859;49.204;8.140;2022-12-07T13:16:35;7.37;;;4.13;;
73575;SDS011;61859;49.204;8.140;2022-12-07T13:18:37;8.53;;;4.40;;
73575;SDS011;61859;49.204;8.140;2022-12-07T13:29:18;6.60;;;3.90;;
73575;SDS011;61859;49.204;8.140;2022-12-07T13:34:34;7.63;;;3.60;;
73575;SDS011;61859;49.204;8.140;2022-12-07T13:37:10;6.07;;;3.00;;
73575;SDS011;61859;49.204;8.140;2022-12-07T13:39:54;3.93;;;3.17;;
73575;SDS011;61859;49.204;8.140;2022-12-07T13:42:32;5.17;;;3.17;;
73575;SDS011;61859;49.204;8.140;2022-12-07T13:45:00;4.70;;;3.00;;
73575;SDS011;61859;49.204;8.140;2022-12-07T13:48:08;5.63;;;3.70;;
73575;SDS011;61859;49.204;8.140;2022-12-07T13:50:40;5.80;;;3.80;;
73575;SDS011;61859;49.204;8.140;2022-12-07T13:53:07;5.13;;;3.00;;
73575;SDS011;61859;49.204;8.140;2022-12-07T13:55:38;4.83;;;3.07;;
73575;SDS011;61859;49.204;8.140;2022-12-07T13:58:10;3.73;;;2.70;;
73575;SDS011;61859;49.204;8.140;2022-12-07T14:00:37;7.60;;;3.40;;
73575;SDS011;61859;49.204;8.140;2022-12-07T14:05:37;4.87;;;3.57;;
73575;SDS011;61859;49.204;8.140;2022-12-07T14:08:05;6.07;;;3.63;;
73575;SDS011;61859;49.204;8.140;2022-12-07T14:16:29;9.07;;;4.37;;
73575;SDS011;61859;49.204;8.140;2022-12-07T14:18:58;4.67;;;3.10;;
73575;SDS011;61859;49.204;8.140;2022-12-07T14:21:26;7.13;;;3.63;;
73575;SDS011;61859;49.204;8.140;2022-12-07T14:24:07;7.00;;;3.67;;
73575;SDS011;61859;49.204;8.140;2022-12-07T14:26:34;6.37;;;3.33;;
73575;SDS011;61859;49.204;8.140;2022-12-07T14:31:46;5.07;;;3.20;;
73575;SDS011;61859;49.204;8.140;2022-12-07T14:34:12;4.63;;;3.73;;
73575;SDS011;61859;49.204;8.140;2022-12-07T14:36:38;5.80;;;3.50;;
73575;SDS011;61859;49.204;8.140;2022-12-07T14:39:03;3.77;;;2.87;;
73575;SDS011;61859;49.204;8.140;2022-12-07T14:41:29;4.63;;;3.37;;
73575;SDS011;61859;49.204;8.140;2022-12-07T14:44:13;5.80;;;4.00;;
73575;SDS011;61859;49.204;8.140;2022-12-07T14:46:38;5.87;;;4.10;;
73575;SDS011;61859;49.204;8.140;2022-12-07T14:49:04;5.57;;;3.83;;
73575;SDS011;61859;49.204;8.140;2022-12-07T14:51:30;5.67;;;3.97;;
73575;SDS011;61859;49.204;8.140;2022-12-07T14:53:56;7.43;;;4.87;;
73575;SDS011;61859;49.204;8.140;2022-12-07T14:56:21;6.87;;;4.50;;
73575;SDS011;61859;49.204;8.140;2022-12-07T14:58:47;10.23;;;4.47;;
73575;SDS011;61859;49.204;8.140;2022-12-07T15:01:13;11.57;;;6.10;;
73575;SDS011;61859;49.204;8.140;2022-12-07T15:03:39;7.23;;;5.17;;
73575;SDS011;61859;49.204;8.140;2022-12-07T15:06:05;11.93;;;5.53;;
73575;SDS011;61859;49.204;8.140;2022-12-07T15:08:31;10.13;;;5.43;;
73575;SDS011;61859;49.204;8.140;2022-12-07T15:10:56;6.10;;;4.07;;
73575;SDS011;61859;49.204;8.140;2022-12-07T15:13:22;7.50;;;5.30;;
73575;SDS011;61859;49.204;8.140;2022-12-07T15:16:08;7.20;;;5.20;;
73575;SDS011;61859;49.204;8.140;2022-12-07T15:18:37;7.03;;;4.97;;
73575;SDS011;61859;49.204;8.140;2022-12-07T15:21:03;7.53;;;5.07;;
73575;SDS011;61859;49.204;8.140;2022-12-07T15:23:28;10.73;;;6.23;;
73575;SDS011;61859;49.204;8.140;2022-12-07T15:25:54;14.07;;;7.43;;
73575;SDS011;61859;49.204;8.140;2022-12-07T15:28:20;8.13;;;5.90;;
73575;SDS011;61859;49.204;8.140;2022-12-07T15:30:45;7.50;;;5.47;;
73575;SDS011;61859;49.204;8.140;2022-12-07T15:33:12;10.37;;;6.43;;
73575;SDS011;61859;49.204;8.140;2022-12-07T15:35:41;7.20;;;5.70;;
73575;SDS011;61859;49.204;8.140;2022-12-07T15:38:09;9.13;;;5.70;;
73575;SDS011;61859;49.204;8.140;2022-12-07T15:40:34;16.20;;;9.77;;
73575;SDS011;61859;49.204;8.140;2022-12-07T15:43:00;9.77;;;7.20;;
73575;SDS011;61859;49.204;8.140;2022-12-07T15:45:26;12.50;;;6.93;;
73575;SDS011;61859;49.204;8.140;2022-12-07T15:47:51;11.10;;;6.97;;
73575;SDS011;61859;49.204;8.140;2022-12-07T15:50:17;9.23;;;6.93;;
73575;SDS011;61859;49.204;8.140;2022-12-07T15:52:43;7.20;;;5.00;;
73575;SDS011;61859;49.204;8.140;2022-12-07T15:55:09;10.37;;;6.87;;
73575;SDS011;61859;49.204;8.140;2022-12-07T15:57:35;9.30;;;7.33;;
73575;SDS011;61859;49.204;8.140;2022-12-07T16:00:03;10.67;;;6.30;;
73575;SDS011;61859;49.204;8.140;2022-12-07T16:02:30;11.27;;;6.70;;
73575;SDS011;61859;49.204;8.140;2022-12-07T16:04:56;12.80;;;7.00;;
73575;SDS011;61859;49.204;8.140;2022-12-07T16:07:21;11.77;;;6.53;;
73575;SDS011;61859;49.204;8.140;2022-12-07T16:09:47;8.27;;;5.63;;
73575;SDS011;61859;49.204;8.140;2022-12-07T16:12:14;8.50;;;5.73;;
73575;SDS011;61859;49.204;8.140;2022-12-07T16:14:40;9.07;;;5.27;;
73575;SDS011;61859;49.204;8.140;2022-12-07T16:17:07;7.93;;;5.10;;
73575;SDS011;61859;49.204;8.140;2022-12-07T16:19:33;8.03;;;5.40;;
73575;SDS011;61859;49.204;8.140;2022-12-07T16:22:00;8.93;;;5.63;;
73575;SDS011;61859;49.204;8.140;2022-12-07T16:24:26;9.10;;;6.03;;
73575;SDS011;61859;49.204;8.140;2022-12-07T16:26:51;11.17;;;6.30;;
73575;SDS011;61859;49.204;8.140;2022-12-07T16:29:18;9.17;;;5.77;;
73575;SDS011;61859;49.204;8.140;2022-12-07T16:31:45;9.13;;;5.93;;
73575;SDS011;61859;49.204;8.140;2022-12-07T16:34:12;10.53;;;5.70;;
73575;SDS011;61859;49.204;8.140;2022-12-07T16:36:37;8.67;;;5.50;;
73575;SDS011;61859;49.204;8.140;2022-12-07T16:39:03;13.07;;;5.87;;
73575;SDS011;61859;49.204;8.140;2022-12-07T16:41:29;8.60;;;5.37;;
73575;SDS011;61859;49.204;8.140;2022-12-07T16:43:55;6.03;;;4.83;;
73575;SDS011;61859;49.204;8.140;2022-12-07T16:46:21;8.13;;;5.53;;
73575;SDS011;61859;49.204;8.140;2022-12-07T16:48:46;7.90;;;4.70;;
73575;SDS011;61859;49.204;8.140;2022-12-07T16:51:13;9.43;;;5.37;;
73575;SDS011;61859;49.204;8.140;2022-12-07T16:53:39;9.73;;;5.33;;
73575;SDS011;61859;49.204;8.140;2022-12-07T16:56:10;7.83;;;4.60;;
73575;SDS011;61859;49.204;8.140;2022-12-07T16:58:37;6.43;;;4.70;;